Graham, Washington
Current Conditions -  °F | °C
As of 6:58 AM on Monday 22 Dec 2014 (Local Time) from KTCM Reporting Station
Overcast Overcast  
Wind Chill: 42°   Ceiling: 2000
Heat Index: 42°   Visibility: 9mi
Dew Point: 42°   Wind: 3mph
Humidity: 100%   Direction: 140°SE
Pressure: 30.29"   Gusts: NA
Location:  47.03°N, 122.3°W
Report Text: KTCM 221458Z AUTO 14003KT 9SM OVC020 06/06 A3029 RMK AO2 VIS 1 1/2 RWY34 SLP262 T00580058
Loading
Personal Weather Stations






























Interactive Weather Map New forecast layout! Learn more

10-Day Weather Forecast

Advertisements
Track Severe Weather on mobile